sensor_id;sensor_type;location;lat;lon;timestamp;P1;durP1;ratioP1;P2;durP2;ratioP2
69059;SDS011;56135;37.534;-122.308;2023-03-13T00:01:17;0.00;;;0.00;;
69059;SDS011;56135;37.534;-122.308;2023-03-13T00:03:45;0.17;;;0.00;;
69059;SDS011;56135;37.534;-122.308;2023-03-13T00:08:38;0.00;;;0.00;;
69059;SDS011;56135;37.534;-122.308;2023-03-13T00:11:05;0.00;;;0.00;;
69059;SDS011;56135;37.534;-122.308;2023-03-13T00:13:34;0.00;;;0.00;;
69059;SDS011;56135;37.534;-122.308;2023-03-13T00:16:03;0.00;;;0.00;;
69059;SDS011;56135;37.534;-122.308;2023-03-13T00:18:31;0.00;;;0.00;;
69059;SDS011;56135;37.534;-122.308;2023-03-13T00:21:07;0.00;;;0.00;;
69059;SDS011;56135;37.534;-122.308;2023-03-13T00:23:35;0.00;;;0.00;;
69059;SDS011;56135;37.534;-122.308;2023-03-13T00:26:04;0.10;;;0.00;;
69059;SDS011;56135;37.534;-122.308;2023-03-13T00:28:51;0.00;;;0.00;;
69059;SDS011;56135;37.534;-122.308;2023-03-13T00:31:19;0.00;;;0.00;;
69059;SDS011;56135;37.534;-122.308;2023-03-13T00:33:48;0.00;;;0.00;;
69059;SDS011;56135;37.534;-122.308;2023-03-13T00:36:20;0.00;;;0.00;;
69059;SDS011;56135;37.534;-122.308;2023-03-13T00:38:49;0.00;;;0.00;;
69059;SDS011;56135;37.534;-122.308;2023-03-13T00:41:17;0.08;;;0.08;;
69059;SDS011;56135;37.534;-122.308;2023-03-13T00:43:45;0.20;;;0.03;;
69059;SDS011;56135;37.534;-122.308;2023-03-13T00:46:12;0.00;;;0.00;;
69059;SDS011;56135;37.534;-122.308;2023-03-13T00:48:40;0.00;;;0.00;;
69059;SDS011;56135;37.534;-122.308;2023-03-13T00:51:07;0.00;;;0.00;;
69059;SDS011;56135;37.534;-122.308;2023-03-13T00:56:00;0.00;;;0.00;;
69059;SDS011;56135;37.534;-122.308;2023-03-13T00:58:30;0.17;;;0.10;;
69059;SDS011;56135;37.534;-122.308;2023-03-13T01:01:05;0.00;;;0.00;;
69059;SDS011;56135;37.534;-122.308;2023-03-13T01:03:33;0.08;;;0.00;;
69059;SDS011;56135;37.534;-122.308;2023-03-13T01:06:00;0.38;;;0.20;;
69059;SDS011;56135;37.534;-122.308;2023-03-13T01:08:28;0.00;;;0.00;;
69059;SDS011;56135;37.534;-122.308;2023-03-13T01:11:02;0.10;;;0.00;;
69059;SDS011;56135;37.534;-122.308;2023-03-13T01:13:36;0.13;;;0.13;;
69059;SDS011;56135;37.534;-122.308;2023-03-13T01:16:07;0.32;;;0.17;;
69059;SDS011;56135;37.534;-122.308;2023-03-13T01:18:36;0.00;;;0.00;;
69059;SDS011;56135;37.534;-122.308;2023-03-13T01:21:04;0.10;;;0.00;;
69059;SDS011;56135;37.534;-122.308;2023-03-13T01:23:31;0.00;;;0.00;;
69059;SDS011;56135;37.534;-122.308;2023-03-13T01:25:57;0.00;;;0.00;;
69059;SDS011;56135;37.534;-122.308;2023-03-13T01:28:35;0.00;;;0.00;;
69059;SDS011;56135;37.534;-122.308;2023-03-13T01:31:26;0.00;;;0.00;;
69059;SDS011;56135;37.534;-122.308;2023-03-13T01:33:55;0.05;;;0.05;;
69059;SDS011;56135;37.534;-122.308;2023-03-13T01:36:23;0.00;;;0.00;;
69059;SDS011;56135;37.534;-122.308;2023-03-13T01:38:52;0.00;;;0.00;;
69059;SDS011;56135;37.534;-122.308;2023-03-13T01:41:21;0.00;;;0.00;;
69059;SDS011;56135;37.534;-122.308;2023-03-13T01:43:47;0.10;;;0.10;;
69059;SDS011;56135;37.534;-122.308;2023-03-13T01:48:44;0.00;;;0.00;;
69059;SDS011;56135;37.534;-122.308;2023-03-13T01:51:34;0.00;;;0.00;;
69059;SDS011;56135;37.534;-122.308;2023-03-13T01:54:23;0.00;;;0.00;;
69059;SDS011;56135;37.534;-122.308;2023-03-13T01:59:58;0.17;;;0.00;;
69059;SDS011;56135;37.534;-122.308;2023-03-13T02:02:29;0.00;;;0.00;;
69059;SDS011;56135;37.534;-122.308;2023-03-13T02:07:30;0.00;;;0.00;;
69059;SDS011;56135;37.534;-122.308;2023-03-13T02:10:10;0.00;;;0.00;;
69059;SDS011;56135;37.534;-122.308;2023-03-13T02:12:38;0.00;;;0.00;;
69059;SDS011;56135;37.534;-122.308;2023-03-13T02:15:11;2.50;;;0.55;;
69059;SDS011;56135;37.534;-122.308;2023-03-13T02:17:40;0.08;;;0.08;;
69059;SDS011;56135;37.534;-122.308;2023-03-13T02:20:08;1.48;;;0.00;;
69059;SDS011;56135;37.534;-122.308;2023-03-13T02:22:44;0.00;;;0.00;;
69059;SDS011;56135;37.534;-122.308;2023-03-13T02:27:54;0.00;;;0.00;;
69059;SDS011;56135;37.534;-122.308;2023-03-13T02:30:28;0.00;;;0.00;;
69059;SDS011;56135;37.534;-122.308;2023-03-13T02:32:54;0.57;;;0.20;;
69059;SDS011;56135;37.534;-122.308;2023-03-13T02:35:21;0.00;;;0.00;;
69059;SDS011;56135;37.534;-122.308;2023-03-13T02:37:56;0.00;;;0.00;;
69059;SDS011;56135;37.534;-122.308;2023-03-13T02:40:27;0.00;;;0.00;;
69059;SDS011;56135;37.534;-122.308;2023-03-13T02:42:55;0.13;;;0.10;;
69059;SDS011;56135;37.534;-122.308;2023-03-13T02:45:25;0.25;;;0.00;;
69059;SDS011;56135;37.534;-122.308;2023-03-13T02:47:52;0.00;;;0.00;;
69059;SDS011;56135;37.534;-122.308;2023-03-13T02:50:18;0.00;;;0.00;;
69059;SDS011;56135;37.534;-122.308;2023-03-13T02:52:47;0.00;;;0.00;;
69059;SDS011;56135;37.534;-122.308;2023-03-13T02:55:25;0.20;;;0.00;;
69059;SDS011;56135;37.534;-122.308;2023-03-13T02:57:54;0.17;;;0.00;;
69059;SDS011;56135;37.534;-122.308;2023-03-13T03:00:20;0.00;;;0.00;;
69059;SDS011;56135;37.534;-122.308;2023-03-13T03:02:54;0.10;;;0.00;;
69059;SDS011;56135;37.534;-122.308;2023-03-13T03:05:21;0.00;;;0.00;;
69059;SDS011;56135;37.534;-122.308;2023-03-13T03:07:48;0.00;;;0.00;;
69059;SDS011;56135;37.534;-122.308;2023-03-13T03:10:15;1.40;;;0.05;;
69059;SDS011;56135;37.534;-122.308;2023-03-13T03:12:43;0.52;;;0.10;;
69059;SDS011;56135;37.534;-122.308;2023-03-13T03:15:09;0.00;;;0.00;;
69059;SDS011;56135;37.534;-122.308;2023-03-13T03:17:37;0.00;;;0.00;;
69059;SDS011;56135;37.534;-122.308;2023-03-13T03:20:04;0.00;;;0.00;;
69059;SDS011;56135;37.534;-122.308;2023-03-13T03:22:36;0.00;;;0.00;;
69059;SDS011;56135;37.534;-122.308;2023-03-13T03:25:05;0.05;;;0.00;;
69059;SDS011;56135;37.534;-122.308;2023-03-13T03:27:33;0.00;;;0.00;;
69059;SDS011;56135;37.534;-122.308;2023-03-13T03:30:01;0.00;;;0.00;;
69059;SDS011;56135;37.534;-122.308;2023-03-13T03:32:28;0.00;;;0.00;;
69059;SDS011;56135;37.534;-122.308;2023-03-13T03:34:54;0.00;;;0.00;;
69059;SDS011;56135;37.534;-122.308;2023-03-13T03:37:20;0.00;;;0.00;;
69059;SDS011;56135;37.534;-122.308;2023-03-13T03:39:46;0.20;;;0.10;;
69059;SDS011;56135;37.534;-122.308;2023-03-13T03:42:13;0.15;;;0.10;;
69059;SDS011;56135;37.534;-122.308;2023-03-13T03:44:39;0.15;;;0.00;;
69059;SDS011;56135;37.534;-122.308;2023-03-13T03:47:06;0.00;;;0.00;;
69059;SDS011;56135;37.534;-122.308;2023-03-13T03:49:33;0.22;;;0.00;;
69059;SDS011;56135;37.534;-122.308;2023-03-13T03:51:59;0.03;;;0.03;;
69059;SDS011;56135;37.534;-122.308;2023-03-13T03:54:25;0.17;;;0.17;;
69059;SDS011;56135;37.534;-122.308;2023-03-13T03:56:51;0.10;;;0.10;;
69059;SDS011;56135;37.534;-122.308;2023-03-13T03:59:18;0.22;;;0.15;;
69059;SDS011;56135;37.534;-122.308;2023-03-13T04:01:44;0.13;;;0.13;;
69059;SDS011;56135;37.534;-122.308;2023-03-13T04:04:10;0.30;;;0.22;;
69059;SDS011;56135;37.534;-122.308;2023-03-13T04:06:36;0.40;;;0.38;;
69059;SDS011;56135;37.534;-122.308;2023-03-13T04:09:02;0.10;;;0.10;;
69059;SDS011;56135;37.534;-122.308;2023-03-13T04:11:29;0.10;;;0.05;;
69059;SDS011;56135;37.534;-122.308;2023-03-13T04:13:55;0.32;;;0.10;;
69059;SDS011;56135;37.534;-122.308;2023-03-13T04:16:21;0.00;;;0.00;;
69059;SDS011;56135;37.534;-122.308;2023-03-13T04:18:48;0.20;;;0.10;;
69059;SDS011;56135;37.534;-122.308;2023-03-13T04:21:14;0.00;;;0.00;;
69059;SDS011;56135;37.534;-122.308;2023-03-13T04:23:40;0.52;;;0.13;;
69059;SDS011;56135;37.534;-122.308;2023-03-13T04:26:06;0.00;;;0.00;;
69059;SDS011;56135;37.534;-122.308;2023-03-13T04:28:32;0.00;;;0.00;;
69059;SDS011;56135;37.534;-122.308;2023-03-13T04:30:59;0.00;;;0.00;;
69059;SDS011;56135;37.534;-122.308;2023-03-13T04:33:25;0.00;;;0.00;;
69059;SDS011;56135;37.534;-122.308;2023-03-13T04:35:52;0.00;;;0.00;;
69059;SDS011;56135;37.534;-122.308;2023-03-13T04:38:18;0.17;;;0.10;;
69059;SDS011;56135;37.534;-122.308;2023-03-13T04:40:44;0.03;;;0.00;;
69059;SDS011;56135;37.534;-122.308;2023-03-13T04:43:12;0.00;;;0.00;;
69059;SDS011;56135;37.534;-122.308;2023-03-13T04:45:38;0.10;;;0.10;;
69059;SDS011;56135;37.534;-122.308;2023-03-13T04:48:04;0.00;;;0.00;;
69059;SDS011;56135;37.534;-122.308;2023-03-13T04:50:31;0.10;;;0.10;;
69059;SDS011;56135;37.534;-122.308;2023-03-13T04:52:57;1.10;;;0.05;;
69059;SDS011;56135;37.534;-122.308;2023-03-13T04:55:23;0.98;;;0.10;;
69059;SDS011;56135;37.534;-122.308;2023-03-13T04:57:49;0.00;;;0.00;;
69059;SDS011;56135;37.534;-122.308;2023-03-13T05:00:15;0.05;;;0.00;;
69059;SDS011;56135;37.534;-122.308;2023-03-13T05:02:42;1.90;;;0.88;;
69059;SDS011;56135;37.534;-122.308;2023-03-13T05:05:08;1.02;;;0.52;;
69059;SDS011;56135;37.534;-122.308;2023-03-13T05:07:34;1.83;;;0.45;;
69059;SDS011;56135;37.534;-122.308;2023-03-13T05:10:00;0.70;;;0.45;;
69059;SDS011;56135;37.534;-122.308;2023-03-13T05:12:27;3.00;;;0.50;;
69059;SDS011;56135;37.534;-122.308;2023-03-13T05:14:53;0.47;;;0.40;;
69059;SDS011;56135;37.534;-122.308;2023-03-13T05:17:27;0.32;;;0.25;;
69059;SDS011;56135;37.534;-122.308;2023-03-13T05:19:56;0.10;;;0.10;;
69059;SDS011;56135;37.534;-122.308;2023-03-13T05:22:37;0.10;;;0.10;;
69059;SDS011;56135;37.534;-122.308;2023-03-13T05:25:19;0.00;;;0.00;;
69059;SDS011;56135;37.534;-122.308;2023-03-13T05:28:04;0.13;;;0.10;;
69059;SDS011;56135;37.534;-122.308;2023-03-13T05:33:19;0.00;;;0.00;;
69059;SDS011;56135;37.534;-122.308;2023-03-13T05:36:01;0.10;;;0.10;;
69059;SDS011;56135;37.534;-122.308;2023-03-13T05:38:28;0.10;;;0.10;;
69059;SDS011;56135;37.534;-122.308;2023-03-13T05:40:54;0.10;;;0.10;;
69059;SDS011;56135;37.534;-122.308;2023-03-13T05:43:20;0.10;;;0.00;;
69059;SDS011;56135;37.534;-122.308;2023-03-13T05:45:46;0.38;;;0.03;;
69059;SDS011;56135;37.534;-122.308;2023-03-13T05:48:13;0.10;;;0.10;;
69059;SDS011;56135;37.534;-122.308;2023-03-13T05:50:39;0.00;;;0.00;;
69059;SDS011;56135;37.534;-122.308;2023-03-13T05:53:05;0.20;;;0.20;;
69059;SDS011;56135;37.534;-122.308;2023-03-13T05:55:31;0.40;;;0.28;;
69059;SDS011;56135;37.534;-122.308;2023-03-13T05:58:18;0.95;;;0.40;;
69059;SDS011;56135;37.534;-122.308;2023-03-13T06:00:45;0.10;;;0.10;;
69059;SDS011;56135;37.534;-122.308;2023-03-13T06:03:11;0.35;;;0.35;;
69059;SDS011;56135;37.534;-122.308;2023-03-13T06:05:37;0.10;;;0.10;;
69059;SDS011;56135;37.534;-122.308;2023-03-13T06:08:03;0.10;;;0.10;;
69059;SDS011;56135;37.534;-122.308;2023-03-13T06:10:30;0.52;;;0.28;;
69059;SDS011;56135;37.534;-122.308;2023-03-13T06:12:56;1.70;;;0.35;;
69059;SDS011;56135;37.534;-122.308;2023-03-13T06:15:22;0.63;;;0.38;;
69059;SDS011;56135;37.534;-122.308;2023-03-13T06:17:48;0.65;;;0.47;;
69059;SDS011;56135;37.534;-122.308;2023-03-13T06:20:15;0.43;;;0.38;;
69059;SDS011;56135;37.534;-122.308;2023-03-13T06:22:41;0.70;;;0.60;;
69059;SDS011;56135;37.534;-122.308;2023-03-13T06:25:08;0.63;;;0.40;;
69059;SDS011;56135;37.534;-122.308;2023-03-13T06:27:34;1.95;;;0.30;;
69059;SDS011;56135;37.534;-122.308;2023-03-13T06:30:01;2.13;;;0.88;;
69059;SDS011;56135;37.534;-122.308;2023-03-13T06:34:53;0.70;;;0.60;;
69059;SDS011;56135;37.534;-122.308;2023-03-13T06:37:19;0.47;;;0.32;;
69059;SDS011;56135;37.534;-122.308;2023-03-13T06:39:45;0.63;;;0.25;;
69059;SDS011;56135;37.534;-122.308;2023-03-13T06:42:12;0.43;;;0.10;;
69059;SDS011;56135;37.534;-122.308;2023-03-13T06:44:38;0.52;;;0.47;;
69059;SDS011;56135;37.534;-122.308;2023-03-13T06:47:05;0.30;;;0.28;;
69059;SDS011;56135;37.534;-122.308;2023-03-13T06:49:32;0.85;;;0.20;;
69059;SDS011;56135;37.534;-122.308;2023-03-13T06:51:58;0.57;;;0.43;;
69059;SDS011;56135;37.534;-122.308;2023-03-13T06:54:24;1.85;;;0.73;;
69059;SDS011;56135;37.534;-122.308;2023-03-13T06:56:50;0.85;;;0.35;;
69059;SDS011;56135;37.534;-122.308;2023-03-13T06:59:17;1.83;;;0.98;;
69059;SDS011;56135;37.534;-122.308;2023-03-13T07:01:43;1.52;;;0.90;;
69059;SDS011;56135;37.534;-122.308;2023-03-13T07:04:11;4.20;;;1.33;;
69059;SDS011;56135;37.534;-122.308;2023-03-13T07:06:37;3.85;;;1.05;;
69059;SDS011;56135;37.534;-122.308;2023-03-13T07:09:04;1.58;;;0.90;;
69059;SDS011;56135;37.534;-122.308;2023-03-13T07:11:30;1.52;;;0.88;;
69059;SDS011;56135;37.534;-122.308;2023-03-13T07:13:56;1.13;;;0.73;;
69059;SDS011;56135;37.534;-122.308;2023-03-13T07:16:26;3.33;;;1.58;;
69059;SDS011;56135;37.534;-122.308;2023-03-13T07:18:52;6.95;;;1.50;;
69059;SDS011;56135;37.534;-122.308;2023-03-13T07:21:18;4.82;;;1.70;;
69059;SDS011;56135;37.534;-122.308;2023-03-13T07:23:45;3.75;;;1.70;;
69059;SDS011;56135;37.534;-122.308;2023-03-13T07:26:13;2.42;;;1.33;;
69059;SDS011;56135;37.534;-122.308;2023-03-13T07:28:40;3.65;;;1.40;;
69059;SDS011;56135;37.534;-122.308;2023-03-13T07:33:33;1.08;;;1.02;;
69059;SDS011;56135;37.534;-122.308;2023-03-13T07:35:59;1.83;;;0.60;;
69059;SDS011;56135;37.534;-122.308;2023-03-13T07:38:25;2.47;;;0.50;;
69059;SDS011;56135;37.534;-122.308;2023-03-13T07:43:20;0.68;;;0.35;;
69059;SDS011;56135;37.534;-122.308;2023-03-13T07:45:53;2.50;;;0.60;;
69059;SDS011;56135;37.534;-122.308;2023-03-13T07:48:22;1.17;;;0.50;;
69059;SDS011;56135;37.534;-122.308;2023-03-13T07:50:50;0.98;;;0.32;;
69059;SDS011;56135;37.534;-122.308;2023-03-13T07:53:16;0.63;;;0.38;;
69059;SDS011;56135;37.534;-122.308;2023-03-13T07:58:23;3.10;;;0.65;;
69059;SDS011;56135;37.534;-122.308;2023-03-13T08:00:51;0.32;;;0.32;;
69059;SDS011;56135;37.534;-122.308;2023-03-13T08:03:17;0.77;;;0.43;;
69059;SDS011;56135;37.534;-122.308;2023-03-13T08:05:44;3.70;;;0.93;;
69059;SDS011;56135;37.534;-122.308;2023-03-13T08:08:10;0.52;;;0.40;;
69059;SDS011;56135;37.534;-122.308;2023-03-13T08:10:36;1.10;;;0.60;;
69059;SDS011;56135;37.534;-122.308;2023-03-13T08:13:03;1.15;;;0.40;;
69059;SDS011;56135;37.534;-122.308;2023-03-13T08:15:29;0.50;;;0.45;;
69059;SDS011;56135;37.534;-122.308;2023-03-13T08:17:55;0.30;;;0.30;;
69059;SDS011;56135;37.534;-122.308;2023-03-13T08:22:48;1.83;;;1.13;;
69059;SDS011;56135;37.534;-122.308;2023-03-13T08:25:15;1.77;;;0.10;;
69059;SDS011;56135;37.534;-122.308;2023-03-13T08:27:41;0.43;;;0.20;;
69059;SDS011;56135;37.534;-122.308;2023-03-13T08:30:08;0.35;;;0.30;;
69059;SDS011;56135;37.534;-122.308;2023-03-13T08:32:35;0.63;;;0.52;;
69059;SDS011;56135;37.534;-122.308;2023-03-13T08:37:28;0.75;;;0.35;;
69059;SDS011;56135;37.534;-122.308;2023-03-13T08:39:54;0.65;;;0.25;;
69059;SDS011;56135;37.534;-122.308;2023-03-13T08:42:21;0.28;;;0.25;;
69059;SDS011;56135;37.534;-122.308;2023-03-13T08:44:48;0.50;;;0.40;;
69059;SDS011;56135;37.534;-122.308;2023-03-13T08:47:14;1.92;;;0.20;;
69059;SDS011;56135;37.534;-122.308;2023-03-13T08:49:42;0.35;;;0.35;;
69059;SDS011;56135;37.534;-122.308;2023-03-13T08:52:09;0.45;;;0.45;;
69059;SDS011;56135;37.534;-122.308;2023-03-13T08:54:35;0.10;;;0.10;;
69059;SDS011;56135;37.534;-122.308;2023-03-13T08:57:01;0.45;;;0.45;;
69059;SDS011;56135;37.534;-122.308;2023-03-13T08:59:28;0.38;;;0.10;;
69059;SDS011;56135;37.534;-122.308;2023-03-13T09:01:54;0.05;;;0.05;;
69059;SDS011;56135;37.534;-122.308;2023-03-13T09:04:20;1.20;;;0.75;;
69059;SDS011;56135;37.534;-122.308;2023-03-13T09:06:46;1.05;;;0.30;;
69059;SDS011;56135;37.534;-122.308;2023-03-13T09:09:13;0.20;;;0.20;;
69059;SDS011;56135;37.534;-122.308;2023-03-13T09:11:39;0.20;;;0.10;;
69059;SDS011;56135;37.534;-122.308;2023-03-13T09:14:06;0.25;;;0.15;;
69059;SDS011;56135;37.534;-122.308;2023-03-13T09:16:33;0.93;;;0.20;;
69059;SDS011;56135;37.534;-122.308;2023-03-13T09:19:00;0.80;;;0.20;;
69059;SDS011;56135;37.534;-122.308;2023-03-13T09:23:54;0.32;;;0.32;;
69059;SDS011;56135;37.534;-122.308;2023-03-13T09:28:46;0.08;;;0.08;;
69059;SDS011;56135;37.534;-122.308;2023-03-13T09:31:14;0.10;;;0.00;;
69059;SDS011;56135;37.534;-122.308;2023-03-13T09:33:48;2.00;;;0.10;;
69059;SDS011;56135;37.534;-122.308;2023-03-13T09:36:15;0.65;;;0.10;;
69059;SDS011;56135;37.534;-122.308;2023-03-13T09:38:42;0.00;;;0.00;;
69059;SDS011;56135;37.534;-122.308;2023-03-13T09:46:46;0.10;;;0.10;;
69059;SDS011;56135;37.534;-122.308;2023-03-13T09:52:01;0.32;;;0.20;;
69059;SDS011;56135;37.534;-122.308;2023-03-13T09:55:03;0.20;;;0.10;;
69059;SDS011;56135;37.534;-122.308;2023-03-13T09:57:56;0.35;;;0.10;;
69059;SDS011;56135;37.534;-122.308;2023-03-13T10:00:38;0.30;;;0.10;;
69059;SDS011;56135;37.534;-122.308;2023-03-13T10:06:05;0.63;;;0.28;;
69059;SDS011;56135;37.534;-122.308;2023-03-13T10:08:40;0.00;;;0.00;;
69059;SDS011;56135;37.534;-122.308;2023-03-13T10:13:46;1.55;;;1.15;;
69059;SDS011;56135;37.534;-122.308;2023-03-13T10:19:10;0.25;;;0.20;;
69059;SDS011;56135;37.534;-122.308;2023-03-13T10:21:40;0.20;;;0.20;;
69059;SDS011;56135;37.534;-122.308;2023-03-13T10:24:12;0.10;;;0.10;;
69059;SDS011;56135;37.534;-122.308;2023-03-13T10:26:43;0.25;;;0.10;;
69059;SDS011;56135;37.534;-122.308;2023-03-13T10:31:49;0.30;;;0.10;;
69059;SDS011;56135;37.534;-122.308;2023-03-13T10:34:17;0.93;;;0.10;;
69059;SDS011;56135;37.534;-122.308;2023-03-13T10:36:45;0.40;;;0.10;;
69059;SDS011;56135;37.534;-122.308;2023-03-13T10:39:14;0.10;;;0.10;;
69059;SDS011;56135;37.534;-122.308;2023-03-13T10:41:47;0.82;;;0.10;;
69059;SDS011;56135;37.534;-122.308;2023-03-13T10:44:14;0.22;;;0.00;;
69059;SDS011;56135;37.534;-122.308;2023-03-13T10:46:44;0.10;;;0.10;;
69059;SDS011;56135;37.534;-122.308;2023-03-13T10:49:15;0.03;;;0.03;;
69059;SDS011;56135;37.534;-122.308;2023-03-13T10:51:47;0.00;;;0.00;;
69059;SDS011;56135;37.534;-122.308;2023-03-13T10:54:23;0.10;;;0.00;;
69059;SDS011;56135;37.534;-122.308;2023-03-13T10:56:50;0.00;;;0.00;;
69059;SDS011;56135;37.534;-122.308;2023-03-13T10:59:31;0.00;;;0.00;;
69059;SDS011;56135;37.534;-122.308;2023-03-13T11:02:12;0.00;;;0.00;;
69059;SDS011;56135;37.534;-122.308;2023-03-13T11:04:47;0.00;;;0.00;;
69059;SDS011;56135;37.534;-122.308;2023-03-13T11:07:39;0.00;;;0.00;;
69059;SDS011;56135;37.534;-122.308;2023-03-13T11:12:49;0.10;;;0.00;;
69059;SDS011;56135;37.534;-122.308;2023-03-13T11:18:23;0.35;;;0.25;;
69059;SDS011;56135;37.534;-122.308;2023-03-13T11:21:22;0.00;;;0.00;;
69059;SDS011;56135;37.534;-122.308;2023-03-13T11:23:57;0.00;;;0.00;;
69059;SDS011;56135;37.534;-122.308;2023-03-13T11:26:48;0.10;;;0.00;;
69059;SDS011;56135;37.534;-122.308;2023-03-13T11:29:47;0.00;;;0.00;;
69059;SDS011;56135;37.534;-122.308;2023-03-13T11:32:25;0.00;;;0.00;;
69059;SDS011;56135;37.534;-122.308;2023-03-13T11:34:57;0.00;;;0.00;;
69059;SDS011;56135;37.534;-122.308;2023-03-13T11:37:30;0.20;;;0.00;;
69059;SDS011;56135;37.534;-122.308;2023-03-13T11:40:03;0.00;;;0.00;;
69059;SDS011;56135;37.534;-122.308;2023-03-13T11:42:53;0.00;;;0.00;;
69059;SDS011;56135;37.534;-122.308;2023-03-13T11:45:49;0.00;;;0.00;;
69059;SDS011;56135;37.534;-122.308;2023-03-13T11:48:40;0.10;;;0.00;;
69059;SDS011;56135;37.534;-122.308;2023-03-13T11:54:15;0.25;;;0.00;;
69059;SDS011;56135;37.534;-122.308;2023-03-13T11:56:56;0.00;;;0.00;;
69059;SDS011;56135;37.534;-122.308;2023-03-13T12:05:00;1.08;;;0.40;;
69059;SDS011;56135;37.534;-122.308;2023-03-13T12:07:34;0.85;;;0.55;;
69059;SDS011;56135;37.534;-122.308;2023-03-13T12:12:46;0.05;;;0.03;;
69059;SDS011;56135;37.534;-122.308;2023-03-13T12:20:29;0.00;;;0.00;;
69059;SDS011;56135;37.534;-122.308;2023-03-13T12:25:45;0.00;;;0.00;;
69059;SDS011;56135;37.534;-122.308;2023-03-13T12:31:19;0.00;;;0.00;;
69059;SDS011;56135;37.534;-122.308;2023-03-13T12:36:45;0.00;;;0.00;;
69059;SDS011;56135;37.534;-122.308;2023-03-13T12:42:21;0.00;;;0.00;;
69059;SDS011;56135;37.534;-122.308;2023-03-13T12:44:48;0.00;;;0.00;;
69059;SDS011;56135;37.534;-122.308;2023-03-13T13:00:19;0.00;;;0.00;;
69059;SDS011;56135;37.534;-122.308;2023-03-13T13:03:00;0.00;;;0.00;;
69059;SDS011;56135;37.534;-122.308;2023-03-13T13:05:33;0.10;;;0.00;;
69059;SDS011;56135;37.534;-122.308;2023-03-13T13:07:59;0.00;;;0.00;;
69059;SDS011;56135;37.534;-122.308;2023-03-13T13:10:26;0.00;;;0.00;;
69059;SDS011;56135;37.534;-122.308;2023-03-13T13:16:24;0.00;;;0.00;;
69059;SDS011;56135;37.534;-122.308;2023-03-13T13:18:36;0.00;;;0.00;;
69059;SDS011;56135;37.534;-122.308;2023-03-13T13:23:32;0.00;;;0.00;;
69059;SDS011;56135;37.534;-122.308;2023-03-13T13:37:01;0.00;;;0.00;;
69059;SDS011;56135;37.534;-122.308;2023-03-13T13:39:39;0.10;;;0.10;;
69059;SDS011;56135;37.534;-122.308;2023-03-13T13:47:25;0.00;;;0.00;;
69059;SDS011;56135;37.534;-122.308;2023-03-13T13:49:57;0.00;;;0.00;;
69059;SDS011;56135;37.534;-122.308;2023-03-13T13:54:59;0.00;;;0.00;;
69059;SDS011;56135;37.534;-122.308;2023-03-13T13:57:26;0.00;;;0.00;;
69059;SDS011;56135;37.534;-122.308;2023-03-13T14:00:04;0.00;;;0.00;;
69059;SDS011;56135;37.534;-122.308;2023-03-13T14:02:53;0.00;;;0.00;;
69059;SDS011;56135;37.534;-122.308;2023-03-13T14:08:04;0.00;;;0.00;;
69059;SDS011;56135;37.534;-122.308;2023-03-13T14:10:39;0.00;;;0.00;;
69059;SDS011;56135;37.534;-122.308;2023-03-13T14:13:12;0.00;;;0.00;;
69059;SDS011;56135;37.534;-122.308;2023-03-13T14:15:47;0.28;;;0.00;;
69059;SDS011;56135;37.534;-122.308;2023-03-13T14:18:21;0.00;;;0.00;;
69059;SDS011;56135;37.534;-122.308;2023-03-13T14:23:34;0.00;;;0.00;;
69059;SDS011;56135;37.534;-122.308;2023-03-13T14:28:38;1.48;;;1.38;;
69059;SDS011;56135;37.534;-122.308;2023-03-13T14:31:06;0.00;;;0.00;;
69059;SDS011;56135;37.534;-122.308;2023-03-13T14:33:33;0.00;;;0.00;;
69059;SDS011;56135;37.534;-122.308;2023-03-13T14:36:00;0.00;;;0.00;;
69059;SDS011;56135;37.534;-122.308;2023-03-13T14:38:27;0.15;;;0.10;;
69059;SDS011;56135;37.534;-122.308;2023-03-13T14:40:54;0.00;;;0.00;;
69059;SDS011;56135;37.534;-122.308;2023-03-13T14:45:56;0.05;;;0.05;;
69059;SDS011;56135;37.534;-122.308;2023-03-13T14:51:25;0.00;;;0.00;;
69059;SDS011;56135;37.534;-122.308;2023-03-13T14:53:56;0.30;;;0.10;;
69059;SDS011;56135;37.534;-122.308;2023-03-13T14:56:37;0.28;;;0.08;;
69059;SDS011;56135;37.534;-122.308;2023-03-13T14:59:16;0.15;;;0.10;;
69059;SDS011;56135;37.534;-122.308;2023-03-13T15:01:44;0.15;;;0.05;;
69059;SDS011;56135;37.534;-122.308;2023-03-13T15:04:11;0.00;;;0.00;;
69059;SDS011;56135;37.534;-122.308;2023-03-13T15:06:37;0.20;;;0.00;;
69059;SDS011;56135;37.534;-122.308;2023-03-13T15:11:51;0.00;;;0.00;;
69059;SDS011;56135;37.534;-122.308;2023-03-13T15:14:37;0.25;;;0.13;;
69059;SDS011;56135;37.534;-122.308;2023-03-13T15:19:39;0.00;;;0.00;;
69059;SDS011;56135;37.534;-122.308;2023-03-13T15:22:09;0.00;;;0.00;;
69059;SDS011;56135;37.534;-122.308;2023-03-13T15:24:40;0.25;;;0.15;;
69059;SDS011;56135;37.534;-122.308;2023-03-13T15:27:13;0.00;;;0.00;;
69059;SDS011;56135;37.534;-122.308;2023-03-13T15:29:41;0.05;;;0.05;;
69059;SDS011;56135;37.534;-122.308;2023-03-13T15:32:10;0.10;;;0.10;;
69059;SDS011;56135;37.534;-122.308;2023-03-13T15:34:59;0.00;;;0.00;;
69059;SDS011;56135;37.534;-122.308;2023-03-13T15:37:28;0.52;;;0.40;;
69059;SDS011;56135;37.534;-122.308;2023-03-13T15:39:55;0.00;;;0.00;;
69059;SDS011;56135;37.534;-122.308;2023-03-13T15:42:22;0.20;;;0.05;;
69059;SDS011;56135;37.534;-122.308;2023-03-13T15:44:50;0.43;;;0.43;;
69059;SDS011;56135;37.534;-122.308;2023-03-13T15:47:17;2.25;;;0.03;;
69059;SDS011;56135;37.534;-122.308;2023-03-13T15:49:45;0.00;;;0.00;;
69059;SDS011;56135;37.534;-122.308;2023-03-13T15:54:43;0.00;;;0.00;;
69059;SDS011;56135;37.534;-122.308;2023-03-13T15:57:14;0.00;;;0.00;;
69059;SDS011;56135;37.534;-122.308;2023-03-13T15:59:42;0.10;;;0.10;;
69059;SDS011;56135;37.534;-122.308;2023-03-13T16:02:18;0.00;;;0.00;;
69059;SDS011;56135;37.534;-122.308;2023-03-13T16:04:46;0.00;;;0.00;;
69059;SDS011;56135;37.534;-122.308;2023-03-13T16:09:40;1.00;;;0.80;;
69059;SDS011;56135;37.534;-122.308;2023-03-13T16:12:08;1.02;;;0.43;;
69059;SDS011;56135;37.534;-122.308;2023-03-13T16:14:36;0.03;;;0.03;;
69059;SDS011;56135;37.534;-122.308;2023-03-13T16:17:05;0.40;;;0.20;;
69059;SDS011;56135;37.534;-122.308;2023-03-13T16:19:39;0.63;;;0.57;;
69059;SDS011;56135;37.534;-122.308;2023-03-13T16:24:32;0.30;;;0.00;;
69059;SDS011;56135;37.534;-122.308;2023-03-13T16:26:58;2.28;;;0.63;;
69059;SDS011;56135;37.534;-122.308;2023-03-13T16:29:24;0.00;;;0.00;;
69059;SDS011;56135;37.534;-122.308;2023-03-13T16:31:51;1.02;;;0.10;;
69059;SDS011;56135;37.534;-122.308;2023-03-13T16:34:17;0.00;;;0.00;;
69059;SDS011;56135;37.534;-122.308;2023-03-13T16:36:43;0.00;;;0.00;;
69059;SDS011;56135;37.534;-122.308;2023-03-13T16:39:10;0.43;;;0.20;;
69059;SDS011;56135;37.534;-122.308;2023-03-13T16:41:40;0.00;;;0.00;;
69059;SDS011;56135;37.534;-122.308;2023-03-13T16:44:06;0.15;;;0.08;;
69059;SDS011;56135;37.534;-122.308;2023-03-13T16:46:36;0.20;;;0.20;;
69059;SDS011;56135;37.534;-122.308;2023-03-13T16:49:10;0.00;;;0.00;;
69059;SDS011;56135;37.534;-122.308;2023-03-13T16:51:38;0.00;;;0.00;;
69059;SDS011;56135;37.534;-122.308;2023-03-13T16:54:05;0.00;;;0.00;;
69059;SDS011;56135;37.534;-122.308;2023-03-13T16:56:32;0.00;;;0.00;;
69059;SDS011;56135;37.534;-122.308;2023-03-13T16:59:02;0.00;;;0.00;;